sensor_id;sensor_type;location;lat;lon;timestamp;temperature;humidity
68251;DHT22;55066;51.560;4.642;2024-01-06T00:02:08;6.59;99.99
68251;DHT22;55066;51.560;4.642;2024-01-06T00:04:33;6.55;99.99
68251;DHT22;55066;51.560;4.642;2024-01-06T00:06:59;6.59;99.99
68251;DHT22;55066;51.560;4.642;2024-01-06T00:09:24;6.53;99.99
68251;DHT22;55066;51.560;4.642;2024-01-06T00:11:50;6.42;99.99
68251;DHT22;55066;51.560;4.642;2024-01-06T00:14:15;6.46;99.99
68251;DHT22;55066;51.560;4.642;2024-01-06T00:16:41;6.45;99.99
68251;DHT22;55066;51.560;4.642;2024-01-06T00:19:07;6.41;99.99
68251;DHT22;55066;51.560;4.642;2024-01-06T00:21:32;6.45;99.99
68251;DHT22;55066;51.560;4.642;2024-01-06T00:23:58;6.44;99.99
68251;DHT22;55066;51.560;4.642;2024-01-06T00:26:23;6.42;99.99
68251;DHT22;55066;51.560;4.642;2024-01-06T00:28:50;6.31;99.99
68251;DHT22;55066;51.560;4.642;2024-01-06T00:31:16;6.41;99.99
68251;DHT22;55066;51.560;4.642;2024-01-06T00:33:44;6.28;99.99
68251;DHT22;55066;51.560;4.642;2024-01-06T00:36:10;6.27;99.99
68251;DHT22;55066;51.560;4.642;2024-01-06T00:38:36;6.22;99.99
68251;DHT22;55066;51.560;4.642;2024-01-06T00:41:01;6.24;99.99
68251;DHT22;55066;51.560;4.642;2024-01-06T00:43:27;6.24;99.99
68251;DHT22;55066;51.560;4.642;2024-01-06T00:45:52;6.14;99.99
68251;DHT22;55066;51.560;4.642;2024-01-06T00:48:18;6.08;99.99
68251;DHT22;55066;51.560;4.642;2024-01-06T00:50:43;6.08;99.99
68251;DHT22;55066;51.560;4.642;2024-01-06T00:53:09;6.03;99.99
68251;DHT22;55066;51.560;4.642;2024-01-06T00:55:34;6.03;99.99
68251;DHT22;55066;51.560;4.642;2024-01-06T00:58:03;6.07;99.99
68251;DHT22;55066;51.560;4.642;2024-01-06T01:00:28;6.06;99.99
68251;DHT22;55066;51.560;4.642;2024-01-06T01:02:54;6.08;99.99
68251;DHT22;55066;51.560;4.642;2024-01-06T01:05:19;6.01;99.99
68251;DHT22;55066;51.560;4.642;2024-01-06T01:07:44;6.06;99.99
68251;DHT22;55066;51.560;4.642;2024-01-06T01:10:10;6.04;99.99
68251;DHT22;55066;51.560;4.642;2024-01-06T01:12:36;6.08;99.99
68251;DHT22;55066;51.560;4.642;2024-01-06T01:15:01;6.08;99.99
68251;DHT22;55066;51.560;4.642;2024-01-06T01:17:27;6.01;99.99
68251;DHT22;55066;51.560;4.642;2024-01-06T01:19:52;5.98;99.99
68251;DHT22;55066;51.560;4.642;2024-01-06T01:22:18;5.94;99.99
68251;DHT22;55066;51.560;4.642;2024-01-06T01:24:43;6.04;99.99
68251;DHT22;55066;51.560;4.642;2024-01-06T01:27:09;6.01;99.99
68251;DHT22;55066;51.560;4.642;2024-01-06T01:29:36;5.97;99.99
68251;DHT22;55066;51.560;4.642;2024-01-06T01:32:01;5.98;99.99
68251;DHT22;55066;51.560;4.642;2024-01-06T01:34:27;6.00;99.99
68251;DHT22;55066;51.560;4.642;2024-01-06T01:36:52;6.03;99.99
68251;DHT22;55066;51.560;4.642;2024-01-06T01:39:18;5.94;99.99
68251;DHT22;55066;51.560;4.642;2024-01-06T01:41:43;5.93;99.99
68251;DHT22;55066;51.560;4.642;2024-01-06T01:44:09;6.06;99.99
68251;DHT22;55066;51.560;4.642;2024-01-06T01:46:34;5.97;99.99
68251;DHT22;55066;51.560;4.642;2024-01-06T01:49:01;6.08;99.99
68251;DHT22;55066;51.560;4.642;2024-01-06T01:51:31;5.98;99.99
68251;DHT22;55066;51.560;4.642;2024-01-06T01:53:59;5.94;99.99
68251;DHT22;55066;51.560;4.642;2024-01-06T01:56:25;5.93;99.99
68251;DHT22;55066;51.560;4.642;2024-01-06T01:58:51;5.93;99.99
68251;DHT22;55066;51.560;4.642;2024-01-06T02:01:17;5.94;99.99
68251;DHT22;55066;51.560;4.642;2024-01-06T02:03:42;5.89;99.99
68251;DHT22;55066;51.560;4.642;2024-01-06T02:06:11;5.94;99.99
68251;DHT22;55066;51.560;4.642;2024-01-06T02:08:37;5.89;99.99
68251;DHT22;55066;51.560;4.642;2024-01-06T02:11:04;5.83;99.99
68251;DHT22;55066;51.560;4.642;2024-01-06T02:13:34;5.89;99.99
68251;DHT22;55066;51.560;4.642;2024-01-06T02:16:00;6.00;99.99
68251;DHT22;55066;51.560;4.642;2024-01-06T02:18:25;5.80;99.99
68251;DHT22;55066;51.560;4.642;2024-01-06T02:20:52;5.81;99.99
68251;DHT22;55066;51.560;4.642;2024-01-06T02:23:20;5.80;99.99
68251;DHT22;55066;51.560;4.642;2024-01-06T02:25:45;5.80;99.99
68251;DHT22;55066;51.560;4.642;2024-01-06T02:28:10;5.73;99.99
68251;DHT22;55066;51.560;4.642;2024-01-06T02:30:36;5.73;99.99
68251;DHT22;55066;51.560;4.642;2024-01-06T02:33:01;5.63;99.99
68251;DHT22;55066;51.560;4.642;2024-01-06T02:35:27;5.71;99.99
68251;DHT22;55066;51.560;4.642;2024-01-06T02:37:52;5.71;99.99
68251;DHT22;55066;51.560;4.642;2024-01-06T02:40:18;5.69;99.99
68251;DHT22;55066;51.560;4.642;2024-01-06T02:42:45;5.60;99.99
68251;DHT22;55066;51.560;4.642;2024-01-06T02:45:10;5.69;99.99
68251;DHT22;55066;51.560;4.642;2024-01-06T02:47:36;5.66;99.99
68251;DHT22;55066;51.560;4.642;2024-01-06T02:50:01;5.55;99.99
68251;DHT22;55066;51.560;4.642;2024-01-06T02:52:27;5.59;99.99
68251;DHT22;55066;51.560;4.642;2024-01-06T02:54:53;5.59;99.99
68251;DHT22;55066;51.560;4.642;2024-01-06T02:57:18;5.58;99.99
68251;DHT22;55066;51.560;4.642;2024-01-06T02:59:44;5.56;99.99
68251;DHT22;55066;51.560;4.642;2024-01-06T03:02:10;5.58;99.99
68251;DHT22;55066;51.560;4.642;2024-01-06T03:04:36;5.63;99.99
68251;DHT22;55066;51.560;4.642;2024-01-06T03:07:01;5.63;99.99
68251;DHT22;55066;51.560;4.642;2024-01-06T03:09:27;5.51;99.99
68251;DHT22;55066;51.560;4.642;2024-01-06T03:11:52;5.63;99.99
68251;DHT22;55066;51.560;4.642;2024-01-06T03:14:18;5.62;99.99
68251;DHT22;55066;51.560;4.642;2024-01-06T03:16:43;5.66;99.99
68251;DHT22;55066;51.560;4.642;2024-01-06T03:19:09;5.66;99.99
68251;DHT22;55066;51.560;4.642;2024-01-06T03:21:34;5.52;99.99
68251;DHT22;55066;51.560;4.642;2024-01-06T03:24:00;5.62;99.99
68251;DHT22;55066;51.560;4.642;2024-01-06T03:26:25;5.59;99.99
68251;DHT22;55066;51.560;4.642;2024-01-06T03:28:51;5.65;99.99
68251;DHT22;55066;51.560;4.642;2024-01-06T03:31:17;5.66;99.99
68251;DHT22;55066;51.560;4.642;2024-01-06T03:33:44;5.51;99.99
68251;DHT22;55066;51.560;4.642;2024-01-06T03:36:13;5.59;99.99
68251;DHT22;55066;51.560;4.642;2024-01-06T03:38:42;5.70;99.99
68251;DHT22;55066;51.560;4.642;2024-01-06T03:41:08;5.63;99.99
68251;DHT22;55066;51.560;4.642;2024-01-06T03:43:34;5.58;99.99
68251;DHT22;55066;51.560;4.642;2024-01-06T03:45:59;5.70;99.99
68251;DHT22;55066;51.560;4.642;2024-01-06T03:48:25;5.66;99.99
68251;DHT22;55066;51.560;4.642;2024-01-06T03:50:51;5.70;99.99
68251;DHT22;55066;51.560;4.642;2024-01-06T03:53:16;5.65;99.99
68251;DHT22;55066;51.560;4.642;2024-01-06T03:55:42;5.62;99.99
68251;DHT22;55066;51.560;4.642;2024-01-06T03:58:07;5.62;99.99
68251;DHT22;55066;51.560;4.642;2024-01-06T04:00:33;5.66;99.99
68251;DHT22;55066;51.560;4.642;2024-01-06T04:02:58;5.58;99.99
68251;DHT22;55066;51.560;4.642;2024-01-06T04:05:23;5.56;99.99
68251;DHT22;55066;51.560;4.642;2024-01-06T04:07:49;5.67;99.99
68251;DHT22;55066;51.560;4.642;2024-01-06T04:10:14;5.62;99.99
68251;DHT22;55066;51.560;4.642;2024-01-06T04:12:40;5.67;99.99
68251;DHT22;55066;51.560;4.642;2024-01-06T04:15:06;5.70;99.99
68251;DHT22;55066;51.560;4.642;2024-01-06T04:17:31;5.53;99.99
68251;DHT22;55066;51.560;4.642;2024-01-06T04:20:00;5.52;99.99
68251;DHT22;55066;51.560;4.642;2024-01-06T04:22:25;5.32;99.99
68251;DHT22;55066;51.560;4.642;2024-01-06T04:24:51;5.45;99.99
68251;DHT22;55066;51.560;4.642;2024-01-06T04:27:17;5.59;99.99
68251;DHT22;55066;51.560;4.642;2024-01-06T04:29:43;5.41;99.99
68251;DHT22;55066;51.560;4.642;2024-01-06T04:32:09;5.49;99.99
68251;DHT22;55066;51.560;4.642;2024-01-06T04:34:34;5.45;99.99
68251;DHT22;55066;51.560;4.642;2024-01-06T04:36:59;5.41;99.99
68251;DHT22;55066;51.560;4.642;2024-01-06T04:39:25;5.46;99.99
68251;DHT22;55066;51.560;4.642;2024-01-06T04:41:50;5.32;99.99
68251;DHT22;55066;51.560;4.642;2024-01-06T04:44:20;5.39;99.99
68251;DHT22;55066;51.560;4.642;2024-01-06T04:46:46;5.41;99.99
68251;DHT22;55066;51.560;4.642;2024-01-06T04:49:11;5.41;99.99
68251;DHT22;55066;51.560;4.642;2024-01-06T04:51:37;5.38;99.99
68251;DHT22;55066;51.560;4.642;2024-01-06T04:54:03;5.32;99.99
68251;DHT22;55066;51.560;4.642;2024-01-06T04:56:28;5.17;99.99
68251;DHT22;55066;51.560;4.642;2024-01-06T04:58:54;5.28;99.99
68251;DHT22;55066;51.560;4.642;2024-01-06T05:01:19;5.36;99.99
68251;DHT22;55066;51.560;4.642;2024-01-06T05:03:45;5.32;99.99
68251;DHT22;55066;51.560;4.642;2024-01-06T05:06:11;5.32;99.99
68251;DHT22;55066;51.560;4.642;2024-01-06T05:08:36;5.21;99.99
68251;DHT22;55066;51.560;4.642;2024-01-06T05:11:06;5.22;99.99
68251;DHT22;55066;51.560;4.642;2024-01-06T05:13:32;5.31;99.99
68251;DHT22;55066;51.560;4.642;2024-01-06T05:15:57;5.25;99.99
68251;DHT22;55066;51.560;4.642;2024-01-06T05:18:23;5.28;99.99
68251;DHT22;55066;51.560;4.642;2024-01-06T05:20:48;5.21;99.99
68251;DHT22;55066;51.560;4.642;2024-01-06T05:23:14;5.10;99.99
68251;DHT22;55066;51.560;4.642;2024-01-06T05:25:41;5.18;99.99
68251;DHT22;55066;51.560;4.642;2024-01-06T05:28:07;5.14;99.99
68251;DHT22;55066;51.560;4.642;2024-01-06T05:30:32;5.17;99.99
68251;DHT22;55066;51.560;4.642;2024-01-06T05:32:58;5.14;99.99
68251;DHT22;55066;51.560;4.642;2024-01-06T05:35:23;5.11;99.99
68251;DHT22;55066;51.560;4.642;2024-01-06T05:37:48;5.28;99.99
68251;DHT22;55066;51.560;4.642;2024-01-06T05:40:14;5.27;99.99
68251;DHT22;55066;51.560;4.642;2024-01-06T05:42:40;5.11;99.99
68251;DHT22;55066;51.560;4.642;2024-01-06T05:45:07;5.13;99.99
68251;DHT22;55066;51.560;4.642;2024-01-06T05:47:36;5.17;99.99
68251;DHT22;55066;51.560;4.642;2024-01-06T05:50:02;5.18;99.99
68251;DHT22;55066;51.560;4.642;2024-01-06T05:52:27;5.10;99.99
68251;DHT22;55066;51.560;4.642;2024-01-06T05:54:53;5.00;99.99
68251;DHT22;55066;51.560;4.642;2024-01-06T05:57:18;4.97;99.99
68251;DHT22;55066;51.560;4.642;2024-01-06T05:59:44;4.93;99.99
68251;DHT22;55066;51.560;4.642;2024-01-06T06:02:09;4.90;99.99
68251;DHT22;55066;51.560;4.642;2024-01-06T06:04:35;5.01;99.99
68251;DHT22;55066;51.560;4.642;2024-01-06T06:07:03;4.95;99.99
68251;DHT22;55066;51.560;4.642;2024-01-06T06:09:29;5.03;99.99
68251;DHT22;55066;51.560;4.642;2024-01-06T06:11:54;5.13;99.99
68251;DHT22;55066;51.560;4.642;2024-01-06T06:14:20;5.03;99.99
68251;DHT22;55066;51.560;4.642;2024-01-06T06:16:45;4.97;99.99
68251;DHT22;55066;51.560;4.642;2024-01-06T06:19:13;4.95;99.99
68251;DHT22;55066;51.560;4.642;2024-01-06T06:21:38;4.97;99.99
68251;DHT22;55066;51.560;4.642;2024-01-06T06:24:04;4.97;99.99
68251;DHT22;55066;51.560;4.642;2024-01-06T06:26:30;4.87;99.99
68251;DHT22;55066;51.560;4.642;2024-01-06T06:28:55;4.93;99.99
68251;DHT22;55066;51.560;4.642;2024-01-06T06:31:20;4.97;99.99
68251;DHT22;55066;51.560;4.642;2024-01-06T06:33:46;5.07;99.99
68251;DHT22;55066;51.560;4.642;2024-01-06T06:36:12;4.97;99.99
68251;DHT22;55066;51.560;4.642;2024-01-06T06:38:38;5.03;99.99
68251;DHT22;55066;51.560;4.642;2024-01-06T06:41:03;4.98;99.99
68251;DHT22;55066;51.560;4.642;2024-01-06T06:43:29;5.01;99.99
68251;DHT22;55066;51.560;4.642;2024-01-06T06:45:54;5.07;99.99
68251;DHT22;55066;51.560;4.642;2024-01-06T06:48:23;5.07;99.99
68251;DHT22;55066;51.560;4.642;2024-01-06T06:50:49;5.04;99.99
68251;DHT22;55066;51.560;4.642;2024-01-06T06:53:15;4.95;99.99
68251;DHT22;55066;51.560;4.642;2024-01-06T06:55:40;4.87;99.99
68251;DHT22;55066;51.560;4.642;2024-01-06T06:58:06;4.76;99.99
68251;DHT22;55066;51.560;4.642;2024-01-06T07:00:32;4.77;99.99
68251;DHT22;55066;51.560;4.642;2024-01-06T07:02:57;4.75;99.99
68251;DHT22;55066;51.560;4.642;2024-01-06T07:05:23;4.76;99.99
68251;DHT22;55066;51.560;4.642;2024-01-06T07:07:50;4.77;99.99
68251;DHT22;55066;51.560;4.642;2024-01-06T07:10:15;4.72;99.99
68251;DHT22;55066;51.560;4.642;2024-01-06T07:12:41;4.83;99.99
68251;DHT22;55066;51.560;4.642;2024-01-06T07:15:07;4.75;99.99
68251;DHT22;55066;51.560;4.642;2024-01-06T07:17:35;4.73;99.99
68251;DHT22;55066;51.560;4.642;2024-01-06T07:20:03;4.83;99.99
68251;DHT22;55066;51.560;4.642;2024-01-06T07:22:28;4.88;99.99
68251;DHT22;55066;51.560;4.642;2024-01-06T07:24:53;4.63;99.99
68251;DHT22;55066;51.560;4.642;2024-01-06T07:27:19;4.72;99.99
68251;DHT22;55066;51.560;4.642;2024-01-06T07:29:45;4.73;99.99
68251;DHT22;55066;51.560;4.642;2024-01-06T07:32:10;4.83;99.99
68251;DHT22;55066;51.560;4.642;2024-01-06T07:34:35;4.80;99.99
68251;DHT22;55066;51.560;4.642;2024-01-06T07:37:01;4.90;99.99
68251;DHT22;55066;51.560;4.642;2024-01-06T07:39:26;4.81;99.99
68251;DHT22;55066;51.560;4.642;2024-01-06T07:41:52;4.83;99.99
68251;DHT22;55066;51.560;4.642;2024-01-06T07:44:17;4.87;99.99
68251;DHT22;55066;51.560;4.642;2024-01-06T07:46:50;4.75;99.99
68251;DHT22;55066;51.560;4.642;2024-01-06T07:49:16;4.76;99.99
68251;DHT22;55066;51.560;4.642;2024-01-06T07:51:42;4.72;99.99
68251;DHT22;55066;51.560;4.642;2024-01-06T07:54:07;4.69;99.99
68251;DHT22;55066;51.560;4.642;2024-01-06T07:56:34;4.70;99.99
68251;DHT22;55066;51.560;4.642;2024-01-06T07:59:03;4.69;99.99
68251;DHT22;55066;51.560;4.642;2024-01-06T08:01:29;4.66;99.99
68251;DHT22;55066;51.560;4.642;2024-01-06T08:04:02;4.67;99.99
68251;DHT22;55066;51.560;4.642;2024-01-06T08:06:27;4.75;99.99
68251;DHT22;55066;51.560;4.642;2024-01-06T08:08:53;4.72;99.99
68251;DHT22;55066;51.560;4.642;2024-01-06T08:11:21;4.81;99.99
68251;DHT22;55066;51.560;4.642;2024-01-06T08:13:46;4.67;99.99
68251;DHT22;55066;51.560;4.642;2024-01-06T08:16:12;4.60;99.99
68251;DHT22;55066;51.560;4.642;2024-01-06T08:18:38;4.75;99.99
68251;DHT22;55066;51.560;4.642;2024-01-06T08:21:05;4.77;99.99
68251;DHT22;55066;51.560;4.642;2024-01-06T08:23:31;4.60;99.99
68251;DHT22;55066;51.560;4.642;2024-01-06T08:25:57;4.55;99.99
68251;DHT22;55066;51.560;4.642;2024-01-06T08:28:27;4.49;99.99
68251;DHT22;55066;51.560;4.642;2024-01-06T08:30:53;4.48;99.99
68251;DHT22;55066;51.560;4.642;2024-01-06T08:33:18;4.32;99.99
68251;DHT22;55066;51.560;4.642;2024-01-06T08:35:44;4.39;99.99
68251;DHT22;55066;51.560;4.642;2024-01-06T08:38:10;4.35;99.99
68251;DHT22;55066;51.560;4.642;2024-01-06T08:40:36;4.38;99.99
68251;DHT22;55066;51.560;4.642;2024-01-06T08:43:02;4.56;99.99
68251;DHT22;55066;51.560;4.642;2024-01-06T08:45:28;4.57;99.99
68251;DHT22;55066;51.560;4.642;2024-01-06T08:47:53;4.57;99.99
68251;DHT22;55066;51.560;4.642;2024-01-06T08:50:19;4.55;99.99
68251;DHT22;55066;51.560;4.642;2024-01-06T08:52:44;4.55;99.99
68251;DHT22;55066;51.560;4.642;2024-01-06T08:55:10;4.50;99.99
68251;DHT22;55066;51.560;4.642;2024-01-06T08:57:35;4.55;99.99
68251;DHT22;55066;51.560;4.642;2024-01-06T09:00:03;4.50;99.99
68251;DHT22;55066;51.560;4.642;2024-01-06T09:02:29;4.57;99.99
68251;DHT22;55066;51.560;4.642;2024-01-06T09:04:54;4.63;99.99
68251;DHT22;55066;51.560;4.642;2024-01-06T09:07:20;4.63;99.99
68251;DHT22;55066;51.560;4.642;2024-01-06T09:09:46;4.62;99.99
68251;DHT22;55066;51.560;4.642;2024-01-06T09:12:11;4.63;99.99
68251;DHT22;55066;51.560;4.642;2024-01-06T09:14:36;4.66;99.99
68251;DHT22;55066;51.560;4.642;2024-01-06T09:17:02;4.52;99.99
68251;DHT22;55066;51.560;4.642;2024-01-06T09:19:28;4.65;99.99
68251;DHT22;55066;51.560;4.642;2024-01-06T09:21:54;4.60;99.99
68251;DHT22;55066;51.560;4.642;2024-01-06T09:24:20;4.65;99.99
68251;DHT22;55066;51.560;4.642;2024-01-06T09:26:47;4.57;99.99
68251;DHT22;55066;51.560;4.642;2024-01-06T09:29:13;4.56;99.99
68251;DHT22;55066;51.560;4.642;2024-01-06T09:31:39;4.56;99.99
68251;DHT22;55066;51.560;4.642;2024-01-06T09:34:09;4.56;99.99
68251;DHT22;55066;51.560;4.642;2024-01-06T09:36:35;4.73;99.99
68251;DHT22;55066;51.560;4.642;2024-01-06T09:39:01;4.66;99.99
68251;DHT22;55066;51.560;4.642;2024-01-06T09:41:27;4.72;99.99
68251;DHT22;55066;51.560;4.642;2024-01-06T09:43:53;4.79;99.99
68251;DHT22;55066;51.560;4.642;2024-01-06T09:46:26;4.91;99.99
68251;DHT22;55066;51.560;4.642;2024-01-06T09:48:52;4.84;99.99
68251;DHT22;55066;51.560;4.642;2024-01-06T09:51:19;4.80;99.99
68251;DHT22;55066;51.560;4.642;2024-01-06T09:53:48;4.87;99.99
68251;DHT22;55066;51.560;4.642;2024-01-06T09:56:17;4.81;99.99
68251;DHT22;55066;51.560;4.642;2024-01-06T09:58:45;4.90;99.99
68251;DHT22;55066;51.560;4.642;2024-01-06T10:01:11;4.87;99.99
68251;DHT22;55066;51.560;4.642;2024-01-06T10:03:37;4.86;99.99
68251;DHT22;55066;51.560;4.642;2024-01-06T10:06:03;4.90;99.99
68251;DHT22;55066;51.560;4.642;2024-01-06T10:08:30;4.94;99.99
68251;DHT22;55066;51.560;4.642;2024-01-06T10:10:58;4.98;99.99
68251;DHT22;55066;51.560;4.642;2024-01-06T10:13:25;4.95;99.99
68251;DHT22;55066;51.560;4.642;2024-01-06T10:15:51;4.91;99.99
68251;DHT22;55066;51.560;4.642;2024-01-06T10:18:16;4.94;99.99
68251;DHT22;55066;51.560;4.642;2024-01-06T10:20:44;4.87;99.99
68251;DHT22;55066;51.560;4.642;2024-01-06T10:23:11;4.95;99.99
68251;DHT22;55066;51.560;4.642;2024-01-06T10:25:38;5.04;99.99
68251;DHT22;55066;51.560;4.642;2024-01-06T10:28:04;5.10;99.99
68251;DHT22;55066;51.560;4.642;2024-01-06T10:30:31;5.25;99.99
68251;DHT22;55066;51.560;4.642;2024-01-06T10:32:56;5.20;99.99
68251;DHT22;55066;51.560;4.642;2024-01-06T10:35:24;5.15;99.99
68251;DHT22;55066;51.560;4.642;2024-01-06T10:37:50;5.22;99.99
68251;DHT22;55066;51.560;4.642;2024-01-06T10:40:18;5.14;99.99
68251;DHT22;55066;51.560;4.642;2024-01-06T10:42:45;5.24;99.99
68251;DHT22;55066;51.560;4.642;2024-01-06T10:45:12;5.07;99.99
68251;DHT22;55066;51.560;4.642;2024-01-06T10:47:42;5.04;99.99
68251;DHT22;55066;51.560;4.642;2024-01-06T10:50:08;5.08;99.99
68251;DHT22;55066;51.560;4.642;2024-01-06T10:52:34;4.97;99.99
68251;DHT22;55066;51.560;4.642;2024-01-06T10:55:04;5.00;99.99
68251;DHT22;55066;51.560;4.642;2024-01-06T10:57:29;4.95;99.99
68251;DHT22;55066;51.560;4.642;2024-01-06T10:59:58;4.86;99.99
68251;DHT22;55066;51.560;4.642;2024-01-06T11:02:25;4.88;99.99
68251;DHT22;55066;51.560;4.642;2024-01-06T11:04:51;4.84;99.99
68251;DHT22;55066;51.560;4.642;2024-01-06T11:07:21;4.80;99.99
68251;DHT22;55066;51.560;4.642;2024-01-06T11:09:57;4.93;99.99
68251;DHT22;55066;51.560;4.642;2024-01-06T11:12:28;5.03;99.99
68251;DHT22;55066;51.560;4.642;2024-01-06T11:14:53;5.01;99.99
68251;DHT22;55066;51.560;4.642;2024-01-06T11:20:22;5.07;99.99
68251;DHT22;55066;51.560;4.642;2024-01-06T11:22:49;4.97;99.99
68251;DHT22;55066;51.560;4.642;2024-01-06T11:25:18;4.97;99.99
68251;DHT22;55066;51.560;4.642;2024-01-06T11:27:50;4.91;99.99
68251;DHT22;55066;51.560;4.642;2024-01-06T11:30:21;4.88;99.99
68251;DHT22;55066;51.560;4.642;2024-01-06T11:32:46;4.88;99.99
68251;DHT22;55066;51.560;4.642;2024-01-06T11:35:16;4.97;99.99
68251;DHT22;55066;51.560;4.642;2024-01-06T11:45:24;5.18;99.99
68251;DHT22;55066;51.560;4.642;2024-01-06T11:47:54;5.15;99.99
68251;DHT22;55066;51.560;4.642;2024-01-06T11:50:19;5.00;99.99
68251;DHT22;55066;51.560;4.642;2024-01-06T11:52:45;5.07;99.99
68251;DHT22;55066;51.560;4.642;2024-01-06T11:55:12;5.08;99.99
68251;DHT22;55066;51.560;4.642;2024-01-06T11:57:38;4.93;99.99
68251;DHT22;55066;51.560;4.642;2024-01-06T12:00:05;4.93;99.99
68251;DHT22;55066;51.560;4.642;2024-01-06T12:02:32;4.91;99.99
68251;DHT22;55066;51.560;4.642;2024-01-06T12:04:57;4.91;99.99
68251;DHT22;55066;51.560;4.642;2024-01-06T12:07:23;4.86;99.99
68251;DHT22;55066;51.560;4.642;2024-01-06T12:10:00;4.81;99.99
68251;DHT22;55066;51.560;4.642;2024-01-06T12:12:27;4.80;99.99
68251;DHT22;55066;51.560;4.642;2024-01-06T12:14:52;4.90;99.99
68251;DHT22;55066;51.560;4.642;2024-01-06T12:17:20;4.81;99.99
68251;DHT22;55066;51.560;4.642;2024-01-06T12:19:51;4.80;99.99
68251;DHT22;55066;51.560;4.642;2024-01-06T12:22:24;4.72;99.99
68251;DHT22;55066;51.560;4.642;2024-01-06T12:24:50;4.87;99.99
68251;DHT22;55066;51.560;4.642;2024-01-06T12:27:17;4.87;99.99
68251;DHT22;55066;51.560;4.642;2024-01-06T12:29:44;4.81;99.99
68251;DHT22;55066;51.560;4.642;2024-01-06T12:32:10;4.79;99.99
68251;DHT22;55066;51.560;4.642;2024-01-06T12:34:38;4.87;99.99
68251;DHT22;55066;51.560;4.642;2024-01-06T12:37:05;4.93;99.99
68251;DHT22;55066;51.560;4.642;2024-01-06T12:39:31;4.86;99.99
68251;DHT22;55066;51.560;4.642;2024-01-06T12:42:01;4.91;99.99
68251;DHT22;55066;51.560;4.642;2024-01-06T12:44:28;4.90;99.99
68251;DHT22;55066;51.560;4.642;2024-01-06T12:46:54;4.91;99.99
68251;DHT22;55066;51.560;4.642;2024-01-06T12:49:19;4.91;99.99
68251;DHT22;55066;51.560;4.642;2024-01-06T12:51:45;4.88;99.99
68251;DHT22;55066;51.560;4.642;2024-01-06T12:54:11;4.84;99.99
68251;DHT22;55066;51.560;4.642;2024-01-06T12:56:36;4.84;99.99
68251;DHT22;55066;51.560;4.642;2024-01-06T12:59:02;4.91;99.99
68251;DHT22;55066;51.560;4.642;2024-01-06T13:01:29;4.83;99.99
68251;DHT22;55066;51.560;4.642;2024-01-06T13:03:55;4.90;99.99
68251;DHT22;55066;51.560;4.642;2024-01-06T13:06:20;4.88;99.99
68251;DHT22;55066;51.560;4.642;2024-01-06T13:08:46;4.77;99.99
68251;DHT22;55066;51.560;4.642;2024-01-06T13:11:12;4.73;99.99
68251;DHT22;55066;51.560;4.642;2024-01-06T13:13:38;4.70;99.99
68251;DHT22;55066;51.560;4.642;2024-01-06T13:16:03;4.72;99.99
68251;DHT22;55066;51.560;4.642;2024-01-06T13:18:31;4.69;99.99
68251;DHT22;55066;51.560;4.642;2024-01-06T13:20:56;4.73;99.99
68251;DHT22;55066;51.560;4.642;2024-01-06T13:23:22;4.72;99.99
68251;DHT22;55066;51.560;4.642;2024-01-06T13:25:47;4.55;99.99
68251;DHT22;55066;51.560;4.642;2024-01-06T13:28:13;4.70;99.99
68251;DHT22;55066;51.560;4.642;2024-01-06T13:30:39;4.76;99.99
68251;DHT22;55066;51.560;4.642;2024-01-06T13:33:07;4.73;99.99
68251;DHT22;55066;51.560;4.642;2024-01-06T13:35:32;4.63;99.99
68251;DHT22;55066;51.560;4.642;2024-01-06T13:37:59;4.65;99.99
68251;DHT22;55066;51.560;4.642;2024-01-06T13:40:24;4.69;99.99
68251;DHT22;55066;51.560;4.642;2024-01-06T13:42:50;4.62;99.99
68251;DHT22;55066;51.560;4.642;2024-01-06T13:45:17;4.63;99.99
68251;DHT22;55066;51.560;4.642;2024-01-06T13:47:43;4.70;99.99
68251;DHT22;55066;51.560;4.642;2024-01-06T13:50:15;4.72;99.99
68251;DHT22;55066;51.560;4.642;2024-01-06T13:52:41;4.66;99.99
68251;DHT22;55066;51.560;4.642;2024-01-06T13:55:07;4.63;99.99
68251;DHT22;55066;51.560;4.642;2024-01-06T13:57:35;4.66;99.99
68251;DHT22;55066;51.560;4.642;2024-01-06T14:00:00;4.75;99.99
68251;DHT22;55066;51.560;4.642;2024-01-06T14:02:26;4.70;99.99
68251;DHT22;55066;51.560;4.642;2024-01-06T14:04:52;4.67;99.99
68251;DHT22;55066;51.560;4.642;2024-01-06T14:07:18;4.66;99.99
68251;DHT22;55066;51.560;4.642;2024-01-06T14:09:45;4.62;99.99
68251;DHT22;55066;51.560;4.642;2024-01-06T14:12:10;4.67;99.99
68251;DHT22;55066;51.560;4.642;2024-01-06T14:14:36;4.69;99.99
68251;DHT22;55066;51.560;4.642;2024-01-06T14:17:02;4.67;99.99
68251;DHT22;55066;51.560;4.642;2024-01-06T14:19:28;4.67;99.99
68251;DHT22;55066;51.560;4.642;2024-01-06T14:21:53;4.65;99.99
68251;DHT22;55066;51.560;4.642;2024-01-06T14:24:19;4.66;99.99
68251;DHT22;55066;51.560;4.642;2024-01-06T14:26:49;4.67;99.99
68251;DHT22;55066;51.560;4.642;2024-01-06T14:29:15;4.63;99.99
68251;DHT22;55066;51.560;4.642;2024-01-06T14:31:42;4.63;99.99
68251;DHT22;55066;51.560;4.642;2024-01-06T14:34:07;4.75;99.99
68251;DHT22;55066;51.560;4.642;2024-01-06T14:36:33;4.69;99.99
68251;DHT22;55066;51.560;4.642;2024-01-06T14:38:58;4.76;99.99
68251;DHT22;55066;51.560;4.642;2024-01-06T14:41:24;4.73;99.99
68251;DHT22;55066;51.560;4.642;2024-01-06T14:43:49;4.73;99.99
68251;DHT22;55066;51.560;4.642;2024-01-06T14:46:15;4.72;99.99
68251;DHT22;55066;51.560;4.642;2024-01-06T14:48:40;4.69;99.99
68251;DHT22;55066;51.560;4.642;2024-01-06T14:51:06;4.75;99.99
68251;DHT22;55066;51.560;4.642;2024-01-06T14:53:31;4.67;99.99
68251;DHT22;55066;51.560;4.642;2024-01-06T14:55:56;4.72;99.99
68251;DHT22;55066;51.560;4.642;2024-01-06T14:58:22;4.72;99.99
68251;DHT22;55066;51.560;4.642;2024-01-06T15:00:47;4.67;99.99
68251;DHT22;55066;51.560;4.642;2024-01-06T15:03:14;4.67;99.99
68251;DHT22;55066;51.560;4.642;2024-01-06T15:05:40;4.72;99.99
68251;DHT22;55066;51.560;4.642;2024-01-06T15:08:05;4.63;99.99
68251;DHT22;55066;51.560;4.642;2024-01-06T15:10:31;4.62;99.99
68251;DHT22;55066;51.560;4.642;2024-01-06T15:12:56;4.62;99.99
68251;DHT22;55066;51.560;4.642;2024-01-06T15:15:22;4.56;99.99
68251;DHT22;55066;51.560;4.642;2024-01-06T15:17:47;4.62;99.99
68251;DHT22;55066;51.560;4.642;2024-01-06T15:20:13;4.59;99.99
68251;DHT22;55066;51.560;4.642;2024-01-06T15:22:38;4.53;99.99
68251;DHT22;55066;51.560;4.642;2024-01-06T15:25:04;4.50;99.99
68251;DHT22;55066;51.560;4.642;2024-01-06T15:27:31;4.46;99.99
68251;DHT22;55066;51.560;4.642;2024-01-06T15:29:58;4.57;99.99
68251;DHT22;55066;51.560;4.642;2024-01-06T15:32:27;4.53;99.99
68251;DHT22;55066;51.560;4.642;2024-01-06T15:34:52;4.55;99.99
68251;DHT22;55066;51.560;4.642;2024-01-06T15:37:18;4.49;99.99
68251;DHT22;55066;51.560;4.642;2024-01-06T15:39:43;4.50;99.99
68251;DHT22;55066;51.560;4.642;2024-01-06T15:42:09;4.42;99.99
68251;DHT22;55066;51.560;4.642;2024-01-06T15:44:35;4.42;99.99
68251;DHT22;55066;51.560;4.642;2024-01-06T15:47:00;4.42;99.99
68251;DHT22;55066;51.560;4.642;2024-01-06T15:49:26;4.48;99.99